createdAt,value
2019-03-15T00:02:42.328Z,78.23
2019-03-15T00:05:11.780Z,78.23
2019-03-15T00:07:41.343Z,78.30
2019-03-15T00:10:10.790Z,78.20
2019-03-15T00:12:40.685Z,78.37
2019-03-15T00:15:10.286Z,78.28
2019-03-15T00:17:39.911Z,78.27
2019-03-15T00:20:30.371Z,78.34
2019-03-15T00:23:11.491Z,78.48
2019-03-15T00:25:41.016Z,78.40
2019-03-15T00:28:10.455Z,78.60
2019-03-15T00:30:44.746Z,78.71
2019-03-15T00:33:14.113Z,78.83
2019-03-15T00:35:43.822Z,79.03
2019-03-15T00:38:32.170Z,79.05
2019-03-15T00:41:01.555Z,79.12
2019-03-15T00:43:31.159Z,79.28
2019-03-15T00:48:35.572Z,79.32
2019-03-15T00:51:05.344Z,79.33
2019-03-15T00:53:34.986Z,79.39
2019-03-15T00:56:04.429Z,79.47
2019-03-15T00:58:33.821Z,79.64
2019-03-15T01:01:04.494Z,79.67
2019-03-15T01:03:33.858Z,79.69
2019-03-15T01:06:03.283Z,79.57
2019-03-15T01:08:32.752Z,79.79
2019-03-15T01:11:02.372Z,79.78
2019-03-15T01:13:50.796Z,80.00
2019-03-15T01:16:20.196Z,79.90
2019-03-15T01:18:49.599Z,79.79
2019-03-15T01:21:38.067Z,79.89
2019-03-15T01:24:09.062Z,79.89
2019-03-15T01:26:41.099Z,79.72
2019-03-15T01:31:46.113Z,79.72
2019-03-15T01:34:27.052Z,79.84
2019-03-15T01:37:07.803Z,79.98
2019-03-15T01:39:37.284Z,80.14
2019-03-15T01:42:06.656Z,80.26
2019-03-15T01:44:36.070Z,80.41
2019-03-15T01:47:05.462Z,80.45
2019-03-15T01:49:35.185Z,80.62
2019-03-15T01:52:23.788Z,80.80
2019-03-15T01:58:05.993Z,81.07
2019-03-15T02:00:35.927Z,81.07
2019-03-15T02:03:05.307Z,81.23
2019-03-15T02:08:10.072Z,81.27
2019-03-15T02:10:59.155Z,81.70
2019-03-15T02:13:40.379Z,81.76
2019-03-15T02:16:09.984Z,81.76
2019-03-15T02:18:58.378Z,82.00
2019-03-15T02:21:40.091Z,82.00
2019-03-15T02:24:09.617Z,81.69
2019-03-15T02:26:39.215Z,81.63
2019-03-15T02:29:08.628Z,82.00
2019-03-15T02:34:27.347Z,82.25
2019-03-15T02:37:17.425Z,82.46
2019-03-15T02:39:46.847Z,82.65
2019-03-15T02:42:16.229Z,82.77
2019-03-15T02:44:45.625Z,82.79
2019-03-15T02:47:15.036Z,83.12
2019-03-15T02:49:44.424Z,83.15
2019-03-15T02:52:32.889Z,83.40
2019-03-15T02:55:02.410Z,83.40
2019-03-15T03:00:22.527Z,82.99
2019-03-15T03:02:51.954Z,82.89
2019-03-15T03:05:21.378Z,82.80
2019-03-15T03:07:51.116Z,82.72
2019-03-15T03:10:22.163Z,82.68
2019-03-15T03:12:51.554Z,82.62
2019-03-15T03:15:21.606Z,82.52
2019-03-15T03:17:50.956Z,82.47
2019-03-15T03:20:21.204Z,82.44
2019-03-15T03:23:01.932Z,82.50
2019-03-15T03:25:33.630Z,82.60
2019-03-15T03:28:03.024Z,82.66
2019-03-15T03:30:32.481Z,82.71
2019-03-15T03:33:03.963Z,82.73
2019-03-15T03:35:33.397Z,82.70
2019-03-15T03:38:03.034Z,82.78
2019-03-15T03:40:51.659Z,82.79
2019-03-15T03:43:21.620Z,82.62
2019-03-15T03:46:29.016Z,82.59
2019-03-15T03:48:58.459Z,82.46
2019-03-15T03:51:27.854Z,82.66
2019-03-15T03:53:57.312Z,82.89
2019-03-15T03:56:26.855Z,82.95
2019-03-15T03:58:56.365Z,83.02
2019-03-15T04:01:25.783Z,83.12
2019-03-15T04:03:55.245Z,82.60
2019-03-15T04:06:24.821Z,83.03
2019-03-15T04:11:54.801Z,82.97
2019-03-15T04:14:16.670Z,82.91
2019-03-15T04:16:46.241Z,83.00
2019-03-15T04:19:15.751Z,83.00
2019-03-15T04:22:04.453Z,83.00
2019-03-15T04:24:33.979Z,83.03
2019-03-15T04:27:03.385Z,82.96
2019-03-15T04:29:51.825Z,82.97
2019-03-15T04:32:21.371Z,82.94
2019-03-15T04:34:50.785Z,83.15
2019-03-15T04:37:22.758Z,83.16
2019-03-15T04:39:51.274Z,83.27
2019-03-15T04:42:27.845Z,83.19
2019-03-15T04:44:57.437Z,83.14
2019-03-15T04:47:26.974Z,83.24
2019-03-15T04:52:31.558Z,83.25
2019-03-15T04:55:12.546Z,83.15
2019-03-15T05:00:17.625Z,83.05
2019-03-15T05:02:47.077Z,82.97
2019-03-15T05:05:16.456Z,82.93
2019-03-15T05:07:46.065Z,82.83
2019-03-15T05:10:34.442Z,82.67
2019-03-15T05:13:04.262Z,82.52
2019-03-15T05:15:33.805Z,82.50
2019-03-15T05:18:03.219Z,82.51
2019-03-15T05:20:32.583Z,82.57
2019-03-15T05:23:02.222Z,82.47
2019-03-15T05:25:31.799Z,82.54
2019-03-15T05:28:01.387Z,82.47
2019-03-15T05:30:52.093Z,82.34
2019-03-15T05:33:21.661Z,82.24
2019-03-15T05:35:51.142Z,82.26
2019-03-15T05:38:20.685Z,82.41
2019-03-15T05:40:50.062Z,82.41
2019-03-15T05:43:19.522Z,82.38
2019-03-15T05:45:48.968Z,82.54
2019-03-15T05:48:18.415Z,82.47
2019-03-15T05:51:07.019Z,82.39
2019-03-15T05:53:36.440Z,82.44
2019-03-15T05:58:50.386Z,82.41
2019-03-15T06:01:20.023Z,82.29
2019-03-15T06:06:37.849Z,82.21
2019-03-15T06:09:07.639Z,82.14
2019-03-15T06:11:37.042Z,82.10
2019-03-15T06:14:07.010Z,82.13
2019-03-15T06:16:36.444Z,82.20
2019-03-15T06:19:05.870Z,82.26
2019-03-15T06:21:35.426Z,82.07
2019-03-15T06:24:04.892Z,82.24
2019-03-15T06:26:53.386Z,82.18
2019-03-15T06:29:44.063Z,82.21
2019-03-15T06:32:13.487Z,82.36
2019-03-15T06:34:43.524Z,82.34
2019-03-15T06:37:17.873Z,82.08
2019-03-15T06:39:47.290Z,81.82
2019-03-15T06:42:16.692Z,81.61
2019-03-15T06:44:57.459Z,81.74
2019-03-15T06:47:17.345Z,81.95
2019-03-15T06:49:47.304Z,81.99
2019-03-15T06:54:53.172Z,82.04
2019-03-15T06:57:22.629Z,82.22
2019-03-15T06:59:52.011Z,82.04
2019-03-15T07:02:21.416Z,82.17
2019-03-15T07:04:51.330Z,82.18
2019-03-15T07:07:39.796Z,82.10
2019-03-15T07:10:11.321Z,81.99
2019-03-15T07:12:40.868Z,81.82
2019-03-15T07:15:15.492Z,81.76
2019-03-15T07:17:47.159Z,81.70
2019-03-15T07:23:12.012Z,81.74
2019-03-15T07:25:41.479Z,81.62
2019-03-15T07:28:11.045Z,81.33
2019-03-15T07:30:40.526Z,81.18
2019-03-15T07:33:10.074Z,81.24
2019-03-15T07:35:39.609Z,80.99
2019-03-15T07:38:09.292Z,81.36
2019-03-15T07:40:38.636Z,81.05
2019-03-15T07:43:08.030Z,80.80
2019-03-15T07:45:37.505Z,80.61
2019-03-15T07:48:06.899Z,80.44
2019-03-15T07:50:36.310Z,80.33
2019-03-15T07:53:05.772Z,79.69
2019-03-15T07:55:35.222Z,79.31
2019-03-15T07:58:04.612Z,78.83
2019-03-15T08:00:34.117Z,77.81
2019-03-15T08:03:04.534Z,78.35
2019-03-15T08:05:33.958Z,78.33
2019-03-15T08:08:03.401Z,78.18
2019-03-15T08:10:32.866Z,77.55
2019-03-15T08:13:02.299Z,77.19
2019-03-15T08:15:33.140Z,77.29
2019-03-15T08:20:57.921Z,77.19
2019-03-15T08:23:27.681Z,77.38
2019-03-15T08:25:57.240Z,77.14
2019-03-15T08:28:27.416Z,76.69
2019-03-15T08:30:57.048Z,76.53
2019-03-15T08:33:26.713Z,76.97
2019-03-15T08:35:56.272Z,77.33
2019-03-15T08:38:28.607Z,77.15
2019-03-15T08:40:57.980Z,77.00
2019-03-15T08:43:27.398Z,76.89
2019-03-15T08:45:56.952Z,77.41
2019-03-15T08:51:26.242Z,77.26
2019-03-15T08:56:33.393Z,76.77
2019-03-15T09:01:43.966Z,76.92
2019-03-15T09:04:13.355Z,76.82
2019-03-15T09:06:43.467Z,77.09
2019-03-15T09:09:13.128Z,76.74
2019-03-15T09:12:03.151Z,77.23
2019-03-15T09:14:32.573Z,77.25
2019-03-15T09:17:01.986Z,76.65
2019-03-15T09:19:31.402Z,76.61
2019-03-15T09:22:15.488Z,76.78
2019-03-15T09:24:32.400Z,76.80
2019-03-15T09:27:01.904Z,76.77
2019-03-15T09:29:31.372Z,76.41
2019-03-15T09:32:08.728Z,75.94
2019-03-15T09:34:42.469Z,76.26
2019-03-15T09:40:00.645Z,75.83
2019-03-15T09:42:48.956Z,76.09
2019-03-15T09:45:18.698Z,76.39
2019-03-15T09:48:07.066Z,76.09
2019-03-15T09:50:50.481Z,76.08
2019-03-15T09:53:19.308Z,75.67
2019-03-15T09:55:51.230Z,75.86
2019-03-15T09:58:20.646Z,75.37
2019-03-15T10:03:38.475Z,75.01
2019-03-15T10:06:14.728Z,75.17
2019-03-15T10:08:54.133Z,74.88
2019-03-15T10:11:10.340Z,74.59
2019-03-15T10:13:39.999Z,74.49
2019-03-15T10:16:09.394Z,75.07
2019-03-15T10:21:13.921Z,75.31
2019-03-15T10:23:43.507Z,75.30
2019-03-15T10:26:14.964Z,74.43
2019-03-15T10:28:44.921Z,74.67
2019-03-15T10:31:14.358Z,74.64
2019-03-15T10:33:50.771Z,74.87
2019-03-15T10:36:17.301Z,74.69
2019-03-15T10:38:46.893Z,74.68
2019-03-15T10:41:16.311Z,74.72
2019-03-15T10:43:45.707Z,75.17
2019-03-15T10:46:15.228Z,75.54
2019-03-15T10:49:03.699Z,75.81
2019-03-15T10:51:33.307Z,76.06
2019-03-15T10:56:58.348Z,76.08
2019-03-15T10:59:27.954Z,76.24
2019-03-15T11:01:57.375Z,76.49
2019-03-15T11:04:27.001Z,76.57
2019-03-15T11:06:56.411Z,76.76
2019-03-15T11:09:25.920Z,76.69
2019-03-15T11:11:55.362Z,76.91
2019-03-15T11:14:26.933Z,76.74
2019-03-15T11:16:56.379Z,76.70
2019-03-15T11:19:25.916Z,76.23
2019-03-15T11:21:55.345Z,76.16
2019-03-15T11:24:26.498Z,76.26
2019-03-15T11:29:31.113Z,76.20
2019-03-15T11:32:00.650Z,76.33
2019-03-15T11:34:48.918Z,76.30
2019-03-15T11:37:18.513Z,75.89
2019-03-15T11:39:47.939Z,75.57
2019-03-15T11:42:17.381Z,75.75
2019-03-15T11:47:22.024Z,76.21
2019-03-15T11:49:51.587Z,76.03
2019-03-15T11:52:21.028Z,75.52
2019-03-15T11:54:50.446Z,75.69
2019-03-15T11:57:32.352Z,75.21
2019-03-15T12:00:02.198Z,74.50
2019-03-15T12:02:32.193Z,74.23
2019-03-15T12:05:01.724Z,74.43
2019-03-15T12:07:50.122Z,74.29
2019-03-15T12:10:19.649Z,73.84
2019-03-15T12:12:49.039Z,73.73
2019-03-15T12:15:18.496Z,73.93
2019-03-15T12:17:48.029Z,73.62
2019-03-15T12:20:36.797Z,73.34
2019-03-15T12:23:17.568Z,72.82
2019-03-15T12:25:49.541Z,73.30
2019-03-15T12:28:18.943Z,73.37
2019-03-15T12:30:48.421Z,74.29
2019-03-15T12:33:17.948Z,74.87
2019-03-15T12:35:47.372Z,75.13
2019-03-15T12:38:16.834Z,75.79
2019-03-15T12:40:51.531Z,76.08
2019-03-15T12:43:21.024Z,76.22
2019-03-15T12:45:52.202Z,76.91
2019-03-15T12:48:21.589Z,77.32
2019-03-15T12:50:54.138Z,77.24
2019-03-15T12:53:23.611Z,76.88
2019-03-15T12:56:10.903Z,76.70
2019-03-15T12:58:39.198Z,76.91
2019-03-15T13:01:09.083Z,77.08
2019-03-15T13:03:38.605Z,76.81
2019-03-15T13:06:07.987Z,76.71
2019-03-15T13:08:37.451Z,76.88
2019-03-15T13:11:11.462Z,76.90
2019-03-15T13:13:41.068Z,76.96
2019-03-15T13:16:12.533Z,76.89
2019-03-15T13:21:20.580Z,77.48
2019-03-15T13:26:44.088Z,77.54
2019-03-15T13:29:13.805Z,77.96
2019-03-15T13:31:45.928Z,77.87
2019-03-15T13:34:15.375Z,77.63
2019-03-15T13:36:45.217Z,78.25
2019-03-15T13:39:14.628Z,78.69
2019-03-15T13:41:46.956Z,79.15
2019-03-15T13:44:16.403Z,79.45
2019-03-15T13:46:45.921Z,79.44
2019-03-15T13:49:34.429Z,79.37
2019-03-15T13:52:04.356Z,78.88
2019-03-15T13:54:33.791Z,79.05
2019-03-15T13:57:03.229Z,79.50
2019-03-15T13:59:32.629Z,80.13
2019-03-15T14:02:07.655Z,80.11
2019-03-15T14:04:55.542Z,80.57
2019-03-15T14:10:19.906Z,79.91
2019-03-15T14:12:49.363Z,79.65
2019-03-15T14:15:18.887Z,79.75
2019-03-15T14:17:48.524Z,79.86
2019-03-15T14:20:20.444Z,79.90
2019-03-15T14:23:09.487Z,79.68
2019-03-15T14:25:51.044Z,79.84
2019-03-15T14:28:20.493Z,79.19
2019-03-15T14:30:50.111Z,79.25
2019-03-15T14:33:19.675Z,79.16
2019-03-15T14:43:45.130Z,77.51
2019-03-15T14:46:14.850Z,77.96
2019-03-15T14:49:03.500Z,77.78
2019-03-15T14:54:46.666Z,77.27
2019-03-15T14:57:16.510Z,77.54
2019-03-15T14:59:46.139Z,77.51
2019-03-15T15:02:16.002Z,77.64
2019-03-15T15:04:45.586Z,77.85
2019-03-15T15:07:18.491Z,77.47
2019-03-15T15:12:23.311Z,77.97
2019-03-15T15:14:52.743Z,77.81
2019-03-15T15:17:24.471Z,77.84
2019-03-15T15:20:08.224Z,76.21
2019-03-15T15:25:21.727Z,77.33
2019-03-15T15:33:21.907Z,77.53
2019-03-15T15:35:54.308Z,77.50
2019-03-15T15:44:09.112Z,76.69
2019-03-15T15:46:46.213Z,76.94
2019-03-15T15:49:15.933Z,77.04
2019-03-15T15:51:47.511Z,77.67
2019-03-15T15:54:17.259Z,77.37
2019-03-15T15:56:46.724Z,77.35
2019-03-15T15:59:16.144Z,77.34
2019-03-15T16:01:45.572Z,77.56
2019-03-15T16:04:14.973Z,77.00
2019-03-15T16:06:44.347Z,77.21
2019-03-15T16:09:13.914Z,76.77
2019-03-15T16:11:43.805Z,76.64
2019-03-15T16:14:13.542Z,77.00
2019-03-15T16:16:43.311Z,77.01
2019-03-15T16:19:35.847Z,77.18
2019-03-15T16:22:05.566Z,77.68
2019-03-15T16:24:34.957Z,77.69
2019-03-15T16:27:04.463Z,77.02
2019-03-15T16:29:36.877Z,77.80
2019-03-15T16:32:06.291Z,77.42
2019-03-15T16:34:35.667Z,77.44
2019-03-15T16:37:08.246Z,77.12
2019-03-15T16:39:37.669Z,76.96
2019-03-15T16:42:08.754Z,77.46
2019-03-15T16:47:13.921Z,78.21
2019-03-15T16:52:29.111Z,78.80
2019-03-15T16:54:58.748Z,79.15
2019-03-15T16:57:28.292Z,79.18
2019-03-15T16:59:57.929Z,79.47
2019-03-15T17:02:30.554Z,79.16
2019-03-15T17:05:00.071Z,78.82
2019-03-15T17:07:29.772Z,78.87
2019-03-15T17:09:59.192Z,79.08
2019-03-15T17:12:28.847Z,79.36
2019-03-15T17:14:58.422Z,79.73
2019-03-15T17:17:27.854Z,80.02
2019-03-15T17:19:57.333Z,80.39
2019-03-15T17:25:01.684Z,80.60
2019-03-15T17:27:50.206Z,80.57
2019-03-15T17:30:31.603Z,80.48
2019-03-15T17:33:01.490Z,80.32
2019-03-15T17:35:30.943Z,80.26
2019-03-15T17:38:00.439Z,80.71
2019-03-15T17:40:30.014Z,80.99
2019-03-15T17:43:02.066Z,81.16
2019-03-15T17:45:31.979Z,81.14
2019-03-15T17:48:01.438Z,81.17
2019-03-15T17:50:31.199Z,81.22
2019-03-15T17:53:03.144Z,81.12
2019-03-15T17:58:07.338Z,81.40
2019-03-15T18:03:21.657Z,81.47
2019-03-15T18:05:49.591Z,81.65
2019-03-15T18:08:18.972Z,81.77
2019-03-15T18:10:48.852Z,81.92
2019-03-15T18:13:18.242Z,81.95
2019-03-15T18:15:47.657Z,81.97
2019-03-15T18:20:52.179Z,81.93
2019-03-15T18:23:21.683Z,81.91
2019-03-15T18:25:51.145Z,82.02
2019-03-15T18:28:20.606Z,81.98
2019-03-15T18:30:50.901Z,82.14
2019-03-15T18:33:20.295Z,82.36
2019-03-15T18:35:49.695Z,82.33
2019-03-15T18:38:19.094Z,82.46
2019-03-15T18:40:48.501Z,82.46
2019-03-15T18:43:17.896Z,82.61
2019-03-15T18:45:47.324Z,82.66
2019-03-15T18:48:16.854Z,82.61
2019-03-15T18:50:46.281Z,82.62
2019-03-15T18:55:50.453Z,82.88
2019-03-15T19:01:00.405Z,82.88
2019-03-15T19:03:29.862Z,82.91
2019-03-15T19:05:59.379Z,82.99
2019-03-15T19:08:29.084Z,83.01
2019-03-15T19:11:05.032Z,83.23
2019-03-15T19:13:34.593Z,83.25
2019-03-15T19:16:04.282Z,83.36
2019-03-15T19:18:33.744Z,83.35
2019-03-15T19:21:03.434Z,83.52
2019-03-15T19:23:32.909Z,83.55
2019-03-15T19:26:02.320Z,83.63
2019-03-15T19:28:32.007Z,83.90
2019-03-15T19:31:20.548Z,83.96
2019-03-15T19:34:01.170Z,84.00
2019-03-15T19:36:31.555Z,84.06
2019-03-15T19:39:01.049Z,84.07
2019-03-15T19:44:05.931Z,84.07
2019-03-15T19:46:35.431Z,84.19
2019-03-15T19:49:05.206Z,84.22
2019-03-15T19:51:34.564Z,84.17
2019-03-15T19:54:04.290Z,84.33
2019-03-15T19:56:33.720Z,84.65
2019-03-15T19:59:03.187Z,84.69
2019-03-15T20:01:32.590Z,84.82
2019-03-15T20:04:21.464Z,84.99
2019-03-15T20:06:51.162Z,85.24
2019-03-15T20:09:20.959Z,85.69
2019-03-15T20:11:50.462Z,85.85
2019-03-15T20:14:19.866Z,86.11
2019-03-15T20:16:49.283Z,86.15
2019-03-15T20:19:18.681Z,86.32
2019-03-15T20:22:07.090Z,86.48
2019-03-15T20:27:30.416Z,86.31
2019-03-15T20:29:59.917Z,86.36
2019-03-15T20:32:29.372Z,86.21
2019-03-15T20:34:59.031Z,86.21
2019-03-15T20:37:49.141Z,86.27
2019-03-15T20:40:18.559Z,86.56
2019-03-15T20:42:47.996Z,86.37
2019-03-15T20:47:52.225Z,86.25
2019-03-15T20:50:21.654Z,86.35
2019-03-15T20:52:51.068Z,86.16
2019-03-15T20:55:20.486Z,86.40
2019-03-15T20:57:50.118Z,86.58
2019-03-15T21:00:19.746Z,86.65
2019-03-15T21:02:49.201Z,86.89
2019-03-15T21:05:18.783Z,86.99
2019-03-15T21:07:48.171Z,87.07
2019-03-15T21:15:40.772Z,87.51
2019-03-15T21:18:10.322Z,87.68
2019-03-15T21:20:43.116Z,87.70
2019-03-15T21:23:12.540Z,87.54
2019-03-15T21:25:42.201Z,87.69
2019-03-15T21:28:11.554Z,87.80
2019-03-15T21:30:48.256Z,87.98
2019-03-15T21:33:12.408Z,87.95
2019-03-15T21:35:41.852Z,87.82
2019-03-15T21:38:12.930Z,87.87
2019-03-15T21:40:42.378Z,87.61
2019-03-15T21:43:11.902Z,87.60
2019-03-15T21:45:41.308Z,87.58
2019-03-15T21:50:46.350Z,87.34
2019-03-15T21:55:57.301Z,87.48
2019-03-15T21:58:26.910Z,87.00
2019-03-15T22:01:02.381Z,87.00
2019-03-15T22:03:28.210Z,86.92
2019-03-15T22:05:57.669Z,87.09
2019-03-15T22:08:27.180Z,87.20
2019-03-15T22:10:56.689Z,86.95
2019-03-15T22:13:45.084Z,86.89
2019-03-15T22:16:14.486Z,86.87
2019-03-15T22:18:43.885Z,86.75
2019-03-15T22:21:13.351Z,86.61
2019-03-15T22:23:42.929Z,86.66
2019-03-15T22:26:12.334Z,86.41
2019-03-15T22:28:41.807Z,86.06
2019-03-15T22:31:16.560Z,86.01
2019-03-15T22:33:42.611Z,86.09
2019-03-15T22:36:31.117Z,86.06
2019-03-15T22:39:11.914Z,85.87
2019-03-15T22:41:41.646Z,86.12
2019-03-15T22:44:30.242Z,85.83
2019-03-15T22:47:11.573Z,85.69
2019-03-15T22:49:41.103Z,85.69
2019-03-15T22:52:29.644Z,85.49
2019-03-15T22:58:00.944Z,85.65
2019-03-15T23:00:36.166Z,85.01
2019-03-15T23:03:06.034Z,84.84
2019-03-15T23:05:36.972Z,84.53
2019-03-15T23:11:00.674Z,84.63
2019-03-15T23:13:30.723Z,84.64
2019-03-15T23:16:19.092Z,84.91
2019-03-15T23:18:48.743Z,84.91
2019-03-15T23:21:18.113Z,84.73
2019-03-15T23:23:47.480Z,84.76
2019-03-15T23:26:16.886Z,85.01
2019-03-15T23:28:47.392Z,84.97
2019-03-15T23:31:17.876Z,84.99
2019-03-15T23:33:47.363Z,84.33
2019-03-15T23:36:16.782Z,84.33
2019-03-15T23:38:46.146Z,85.03
2019-03-15T23:41:26.838Z,85.27
2019-03-15T23:43:56.310Z,85.27
2019-03-15T23:46:25.819Z,85.30
2019-03-15T23:48:55.223Z,85.43
2019-03-15T23:51:24.783Z,85.44
2019-03-15T23:53:54.162Z,85.41
2019-03-15T23:56:23.668Z,85.33
2019-03-15T23:58:53.078Z,85.17
